עמוד ראשי
METAR-TAF:

METAR-TAF

שדות תעופה :

Dundee, סקוטלנד

קו רוחב: 56-27N, קו אורך: 003-01W, גובה: 4מטר

תצפית מזג אוויר נוכחית

הדו"ח נערך לפני 7 שעות ו 32דקות, בשעה 15:20 UTC
רוח 11קשר מכיוון מזרח
טמפרטורת 12 צלסיוס
לחות 94%
לחץ 1018 hPa
ראות: 5000מטר
עננים בינוניים בגובה 500רגל
אד,

METAR: EGPN 181520Z 10011KT 5000 BR BKN005 12/11 Q1018

זמן: 23:52 (22:52 UTC)

תחזית

הדו"ח נערך לפני 11 שעות ו 53דקות, בשעה 10:59 UTC
תחזית בתוקף מ 18 ב 12 UTC עד 18 ב 15 UTC
רוח 9קשר מכיוון מזרח
ראות 10 קילומטר או יותר
מעט עננים בגובה 3000רגל
הסתברות 40% :
זמנית מ -
18 ב 12 UTC עד 18 ב 15 UTC
ראות: 7000מטר

TAF: EGPN 181059Z 1812/1815 10009KT 9999 FEW030 PROB40 TEMPO 1812/1815 7000

תצפיות ותחזיות מזג אוויר לגבי יותר מ- 4,000 שדות תעופה ברחבי העולם. דוחות METAR ו- TAF.

התחנות הזמינות מסומנות בנקודות צהובות ואדומות על גבי המפה.

העבר את העכבר לנקודה הצבעונית על מנת לראות את שם התחנה.

לאחר מכן, לחץ כדי לראות את תוכן ואת תחזיות מזג האוויר.

כדי לשנות את המפה: לחץ על הכפתורים הירוקים עם הפלוס השחור כדי להתקרב; על הכפתור הירוק עם המקף כדי להתרחק; או בחיצים הירוקים למפות סמוכות.


METAR-TAF: